Time;durP1;ratioP1;P1;durP2;ratioP2;P2;SDS_P1;SDS_P2;PMS_P1;PMS_P2;Temp;Humidity;BMP_temperature;BMP_pressure;BME280_temperature;BME280_humidity;BME280_pressure;Samples;Min_cycle;Max_cycle;Signal;HPM_P1;HPM_P2
2022/11/28 00:01:03;;;;;;;9.43;3.67;;;;;;;;;;5058043;28;20071;-72
2022/11/28 00:03:29;;;;;;;10.23;3.60;;;;;;;;;;5057185;28;20044;-72
2022/11/28 00:05:55;;;;;;;12.63;3.22;;;;;;;;;;5057445;28;20476;-72
2022/11/28 00:08:21;;;;;;;12.38;3.58;;;;;;;;;;5056812;28;20044;-72
2022/11/28 00:10:48;;;;;;;8.75;3.15;;;;;;;;;;5057507;28;20079;-72
2022/11/28 00:13:14;;;;;;;11.27;3.45;;;;;;;;;;5056768;28;20561;-72
2022/11/28 00:15:40;;;;;;;11.18;3.40;;;;;;;;;;5057152;28;20503;-72
2022/11/28 00:18:06;;;;;;;8.50;3.13;;;;;;;;;;5056648;28;20037;-72
2022/11/28 00:20:32;;;;;;;12.48;4.10;;;;;;;;;;5057407;28;20041;-72
2022/11/28 00:22:58;;;;;;;9.98;3.38;;;;;;;;;;5056683;28;20484;-72
2022/11/28 00:25:24;;;;;;;13.55;3.15;;;;;;;;;;5056394;28;20056;-72
2022/11/28 00:27:50;;;;;;;9.60;2.80;;;;;;;;;;5056463;28;20068;-72
2022/11/28 00:30:17;;;;;;;9.52;2.83;;;;;;;;;;5056649;28;20048;-72
2022/11/28 00:32:43;;;;;;;9.32;2.67;;;;;;;;;;5056343;28;20388;-72
2022/11/28 00:35:09;;;;;;;9.32;2.65;;;;;;;;;;5056341;28;20124;-72
2022/11/28 00:37:35;;;;;;;10.98;3.05;;;;;;;;;;5056541;28;20081;-72
2022/11/28 00:40:01;;;;;;;11.45;3.25;;;;;;;;;;5056349;28;20128;-72
2022/11/28 00:42:27;;;;;;;10.90;2.95;;;;;;;;;;5056777;28;20120;-72
2022/11/28 00:44:53;;;;;;;6.22;2.42;;;;;;;;;;5056946;28;20537;-72
2022/11/28 00:47:19;;;;;;;10.70;3.13;;;;;;;;;;5056446;28;20056;-72
2022/11/28 00:49:45;;;;;;;8.18;3.15;;;;;;;;;;5056612;28;20372;-72
2022/11/28 00:52:11;;;;;;;8.43;2.83;;;;;;;;;;5056442;28;20033;-72
2022/11/28 00:54:38;;;;;;;6.50;2.88;;;;;;;;;;5056230;28;20044;-72
2022/11/28 00:57:04;;;;;;;7.25;2.92;;;;;;;;;;5056070;28;20041;-72
2022/11/28 00:59:30;;;;;;;7.10;2.72;;;;;;;;;;5056732;28;20045;-72
2022/11/28 01:01:56;;;;;;;8.18;2.75;;;;;;;;;;5055785;28;20040;-72
2022/11/28 01:04:22;;;;;;;15.45;3.25;;;;;;;;;;5056062;28;20044;-72
2022/11/28 01:06:49;;;;;;;12.68;4.32;;;;;;;;;;5055610;28;20044;-72
2022/11/28 01:09:17;;;;;;;13.80;3.80;;;;;;;;;;5056276;28;20055;-72
2022/11/28 01:11:44;;;;;;;9.07;3.15;;;;;;;;;;5055475;28;20041;-72
2022/11/28 01:14:10;;;;;;;10.52;3.55;;;;;;;;;;5055869;28;20068;-72
2022/11/28 01:16:37;;;;;;;11.68;3.45;;;;;;;;;;5055812;28;20045;-72
2022/11/28 01:19:03;;;;;;;8.80;3.10;;;;;;;;;;5055588;28;20054;-72
2022/11/28 01:21:29;;;;;;;8.40;2.70;;;;;;;;;;5055418;28;20124;-72
2022/11/28 01:23:55;;;;;;;9.73;2.63;;;;;;;;;;5055434;28;20151;-72
2022/11/28 01:26:23;;;;;;;7.90;3.03;;;;;;;;;;5055417;28;20049;-72
2022/11/28 01:28:49;;;;;;;6.68;2.65;;;;;;;;;;5055290;28;20037;-72
2022/11/28 01:31:17;;;;;;;8.48;2.65;;;;;;;;;;5055264;28;20063;-72
2022/11/28 01:33:43;;;;;;;10.77;2.85;;;;;;;;;;5055038;28;20045;-72
2022/11/28 01:36:09;;;;;;;15.65;2.85;;;;;;;;;;5055637;28;20044;-72
2022/11/28 01:38:36;;;;;;;9.77;2.60;;;;;;;;;;5054958;28;20044;-72
2022/11/28 01:41:02;;;;;;;7.13;2.72;;;;;;;;;;5054978;28;20049;-72
2022/11/28 01:43:28;;;;;;;10.00;2.80;;;;;;;;;;5055066;28;20562;-72
2022/11/28 01:45:54;;;;;;;8.70;2.90;;;;;;;;;;5054902;28;20079;-72
2022/11/28 01:48:24;;;;;;;7.75;2.50;;;;;;;;;;5054665;28;20052;-72
2022/11/28 01:50:52;;;;;;;12.10;2.95;;;;;;;;;;5054690;28;20045;-72
2022/11/28 01:53:18;;;;;;;6.55;2.70;;;;;;;;;;5054759;28;20047;-72
2022/11/28 01:55:57;;;;;;;9.52;3.03;;;;;;;;;;5054650;28;20083;-72
2022/11/28 01:58:24;;;;;;;15.55;3.40;;;;;;;;;;5054005;28;20041;-71
2022/11/28 02:00:50;;;;;;;9.63;3.17;;;;;;;;;;5054142;28;20049;-70
2022/11/28 02:03:22;;;;;;;8.20;2.63;;;;;;;;;;5054703;28;20045;-71
2022/11/28 02:05:50;;;;;;;9.50;2.80;;;;;;;;;;5055180;28;20105;-71
2022/11/28 02:08:17;;;;;;;10.95;3.10;;;;;;;;;;5054586;28;20040;-71
2022/11/28 02:10:52;;;;;;;10.65;2.95;;;;;;;;;;5054769;28;20041;-71
2022/11/28 02:13:50;;;;;;;10.75;2.92;;;;;;;;;;5054766;28;20097;-71
2022/11/28 02:16:16;;;;;;;7.30;2.53;;;;;;;;;;5042478;28;20053;-71
2022/11/28 02:19:03;;;;;;;7.95;2.78;;;;;;;;;;5054278;28;20040;-71
2022/11/28 02:21:45;;;;;;;7.75;2.55;;;;;;;;;;5050101;28;20044;-72
2022/11/28 02:24:20;;;;;;;25.13;14.40;;;;;;;;;;5054454;28;20048;-71
2022/11/28 02:27:05;;;;;;;11.65;4.30;;;;;;;;;;5054758;28;20186;-71
2022/11/28 02:29:37;;;;;;;10.35;2.92;;;;;;;;;;5054145;28;20051;-71
2022/11/28 02:32:22;;;;;;;11.15;2.90;;;;;;;;;;5054374;28;20380;-71
2022/11/28 02:35:06;;;;;;;9.43;2.92;;;;;;;;;;5054640;28;20033;-71
2022/11/28 02:37:38;;;;;;;9.52;2.70;;;;;;;;;;5054533;28;20063;-71
2022/11/28 02:40:04;;;;;;;9.38;3.38;;;;;;;;;;5054768;28;20037;-72
2022/11/28 02:42:38;;;;;;;7.88;2.97;;;;;;;;;;5054656;28;20508;-72
2022/11/28 02:45:10;;;;;;;11.63;2.85;;;;;;;;;;5054584;28;20045;-72
2022/11/28 02:47:37;;;;;;;9.93;2.90;;;;;;;;;;5054249;28;20041;-72
2022/11/28 02:50:09;;;;;;;9.07;2.38;;;;;;;;;;5054813;28;20093;-72
2022/11/28 02:52:38;;;;;;;5.43;2.85;;;;;;;;;;5054460;28;20048;-72
2022/11/28 02:55:05;;;;;;;8.40;2.83;;;;;;;;;;5054282;28;20044;-72
2022/11/28 02:57:36;;;;;;;12.43;3.45;;;;;;;;;;5054455;28;20044;-72
2022/11/28 03:00:20;;;;;;;12.82;3.10;;;;;;;;;;5054743;28;20041;-72
2022/11/28 03:02:48;;;;;;;9.43;3.10;;;;;;;;;;5054135;28;20404;-72
2022/11/28 03:05:17;;;;;;;10.52;3.08;;;;;;;;;;5054248;28;20065;-72
2022/11/28 03:07:52;;;;;;;6.18;2.50;;;;;;;;;;5054327;28;20044;-72
2022/11/28 03:10:24;;;;;;;12.43;2.88;;;;;;;;;;5054463;28;20087;-72
2022/11/28 03:12:53;;;;;;;8.27;2.83;;;;;;;;;;5058144;28;20045;-72
2022/11/28 03:15:26;;;;;;;13.60;3.17;;;;;;;;;;5057929;28;20041;-73
2022/11/28 03:17:52;;;;;;;5.97;2.60;;;;;;;;;;5058121;28;20048;-73
2022/11/28 03:20:34;;;;;;;9.43;2.65;;;;;;;;;;5058341;28;20503;-73
2022/11/28 03:23:03;;;;;;;10.18;3.53;;;;;;;;;;5057688;28;20040;-73
2022/11/28 03:25:35;;;;;;;18.63;3.83;;;;;;;;;;5057388;28;20060;-73
2022/11/28 03:28:08;;;;;;;20.20;3.85;;;;;;;;;;5057600;28;20045;-73
2022/11/28 03:30:42;;;;;;;21.80;4.43;;;;;;;;;;5058168;28;20540;-73
2022/11/28 03:33:09;;;;;;;19.92;5.13;;;;;;;;;;5057795;28;20033;-73
2022/11/28 03:35:37;;;;;;;23.58;4.82;;;;;;;;;;5058271;28;20131;-73
2022/11/28 03:38:12;;;;;;;15.73;4.10;;;10.20;99.90;;;;;;5057977;28;20041;-73
2022/11/28 03:40:48;;;;;;;7.95;3.90;;;10.00;99.90;;;;;;5057816;28;20131;-73
2022/11/28 03:43:20;;;;;;;7.78;4.50;;;9.90;99.90;;;;;;5057786;28;20033;-73
2022/11/28 03:45:51;;;;;;;6.25;3.67;;;9.80;99.90;;;;;;5057566;28;20048;-73
2022/11/28 03:48:25;;;;;;;7.70;4.28;;;9.80;99.90;;;;;;5057707;28;20040;-73
2022/11/28 03:51:09;;;;;;;7.25;4.22;;;9.80;99.90;;;;;;5057794;28;20044;-73
2022/11/28 03:53:54;;;;;;;5.57;4.57;;;9.70;99.90;;;;;;5057527;28;20044;-72
2022/11/28 03:56:44;;;;;;;6.57;5.38;;;9.60;99.90;;;;;;5057479;28;20041;-72
2022/11/28 03:59:19;;;;;;;9.15;5.72;;;9.60;99.90;;;;;;5056806;28;20438;-72
2022/11/28 04:01:53;;;;;;;7.60;4.65;;;9.50;99.90;;;;;;5057172;28;20079;-72
2022/11/28 04:04:19;;;;;;;6.68;4.80;;;9.50;99.90;;;;;;5056655;28;20040;-72
2022/11/28 04:07:04;;;;;;;7.78;4.70;;;9.50;99.90;;;;;;5056794;28;20098;-72
2022/11/28 04:09:55;;;;;;;8.73;5.40;;;9.60;99.90;;;;;;5056523;28;20483;-72
2022/11/28 04:12:48;;;;;;;11.15;5.18;;;9.50;99.90;;;;;;5057294;28;20047;-72
2022/11/28 04:15:45;;;;;;;10.75;6.85;;;9.50;99.90;;;;;;5056734;28;20037;-71
2022/11/28 04:18:32;;;;;;;12.57;8.48;;;9.40;99.90;;;;;;5051739;28;20044;-71
2022/11/28 04:21:30;;;;;;;11.88;9.23;;;9.30;99.90;;;;;;5056446;28;20115;-72
2022/11/28 04:24:11;;;;;;;14.57;7.82;;;9.40;99.90;;;;;;5051653;28;20045;-72
2022/11/28 04:26:42;;;;;;;12.52;7.07;;;9.30;99.90;;;;;;5056661;28;20468;-72
2022/11/28 04:29:12;;;;;;;9.93;6.55;;;9.30;99.90;;;;;;5056490;28;20037;-72
2022/11/28 04:31:40;;;;;;;12.37;5.60;;;;;;;;;;5057022;28;20055;-72
2022/11/28 04:34:09;;;;;;;8.35;5.80;;;;;;;;;;5056660;28;20033;-72
2022/11/28 04:36:39;;;;;;;9.02;6.90;;;;;;;;;;5056305;28;20045;-72
2022/11/28 04:39:07;;;;;;;12.20;6.53;;;;;;;;;;5056362;28;20087;-72
2022/11/28 04:41:34;;;;;;;8.75;5.85;;;;;;;;;;5056351;28;20546;-71
2022/11/28 04:44:15;;;;;;;8.63;5.57;;;9.30;99.90;;;;;;5056367;28;20129;-72
2022/11/28 04:46:47;;;;;;;6.38;5.05;;;;;;;;;;5056664;28;20198;-72
2022/11/28 04:49:16;;;;;;;4.70;4.10;;;;;;;;;;5056420;28;20099;-72
2022/11/28 04:52:02;;;;;;;6.72;3.88;;;;;;;;;;5056331;28;20039;-72
2022/11/28 04:54:37;;;;;;;6.65;4.00;;;;;;;;;;5056579;28;20071;-72
2022/11/28 04:57:13;;;;;;;6.65;4.00;;;;;;;;;;5055889;28;20052;-72
2022/11/28 04:59:42;;;;;;;6.55;4.30;;;;;;;;;;5056436;28;20044;-72
2022/11/28 05:02:09;;;;;;;7.20;3.80;;;;;;;;;;5056114;28;20040;-72
2022/11/28 05:04:36;;;;;;;7.63;4.50;;;8.90;99.90;;;;;;5056630;28;20144;-72
2022/11/28 05:07:06;;;;;;;5.45;4.07;;;9.00;99.90;;;;;;5056357;28;20087;-72
2022/11/28 05:09:33;;;;;;;5.30;3.45;;;9.00;99.90;;;;;;5056321;28;20080;-72
2022/11/28 05:12:00;;;;;;;3.33;2.80;;;;;;;;;;5055752;28;20047;-72
2022/11/28 05:14:26;;;;;;;4.88;3.08;;;;;;;;;;5055883;28;20120;-72
2022/11/28 05:16:54;;;;;;;7.13;3.95;;;;;;;;;;5055810;28;20049;-71
2022/11/28 05:19:20;;;;;;;6.80;4.22;;;;;;;;;;5055824;28;20041;-71
2022/11/28 05:21:51;;;;;;;7.63;5.50;;;;;;;;;;5056036;28;20118;-72
2022/11/28 05:24:18;;;;;;;5.68;3.88;;;8.70;99.90;;;;;;5055735;28;20041;-72
2022/11/28 05:26:46;;;;;;;4.22;2.88;;;;;;;;;;5055692;28;20056;-72
2022/11/28 05:29:14;;;;;;;7.05;4.95;;;;;;;;;;5055584;28;20060;-72
2022/11/28 05:31:41;;;;;;;5.72;4.65;;;;;;;;;;5055571;28;20048;-71
2022/11/28 05:34:09;;;;;;;5.40;4.40;;;;;;;;;;5054802;28;20114;-71
2022/11/28 05:36:38;;;;;;;5.43;4.55;;;;;;;;;;5055457;28;20044;-71
2022/11/28 05:39:06;;;;;;;4.60;3.83;;;;;;;;;;5055144;28;20065;-71
2022/11/28 05:41:35;;;;;;;7.05;4.78;;;;;;;;;;5054935;28;20043;-72
2022/11/28 05:44:03;;;;;;;4.72;3.20;;;;;;;;;;5055336;28;20120;-72
2022/11/28 05:46:30;;;;;;;4.10;3.38;;;;;;;;;;5055474;28;20075;-72
2022/11/28 05:48:57;;;;;;;5.25;3.28;;;;;;;;;;5055384;28;20044;-72
2022/11/28 05:51:25;;;;;;;6.32;3.10;;;8.80;99.90;;;;;;5054959;28;20041;-72
2022/11/28 05:53:54;;;;;;;3.97;3.42;;;8.20;99.90;;;;;;5055123;28;20047;-71
2022/11/28 05:56:23;;;;;;;6.07;3.10;;;8.80;99.90;;;;;;5054361;28;20044;-71
2022/11/28 05:58:49;;;;;;;4.07;3.67;;;;;;;;;;5074155;28;20055;-71
2022/11/28 06:01:17;;;;;;;5.65;3.60;;;;;;;;;;5075039;28;20040;-71
2022/11/28 06:03:43;;;;;;;7.05;3.85;;;8.70;99.90;;;;;;5074707;28;20041;-71
2022/11/28 06:06:14;;;;;;;4.80;3.25;;;8.70;99.90;;;;;;5075125;28;20422;-71
2022/11/28 06:08:41;;;;;;;5.82;3.45;;;;;;;;;;5074941;28;20127;-72
2022/11/28 06:11:07;;;;;;;4.78;3.10;;;;;;;;;;5074711;28;20171;-72
2022/11/28 06:13:33;;;;;;;4.75;2.95;;;;;;;;;;5074708;28;20060;-72
2022/11/28 06:15:59;;;;;;;3.47;2.28;;;;;;;;;;5074909;28;20052;-72
2022/11/28 06:18:26;;;;;;;2.13;1.75;;;;;;;;;;5074681;28;20037;-72
2022/11/28 06:20:52;;;;;;;3.05;1.95;;;;;;;;;;5075042;28;20553;-71
2022/11/28 06:23:18;;;;;;;4.30;1.90;;;;;;;;;;5059642;28;20037;-71
2022/11/28 06:25:44;;;;;;;1.88;1.50;;;;;;;;;;5052683;28;20148;-71
2022/11/28 06:28:10;;;;;;;2.15;1.10;;;;;;;;;;5052801;28;20045;-69
2022/11/28 06:30:36;;;;;;;0.93;0.90;;;;;;;;;;5053648;28;20080;-69
2022/11/28 06:33:03;;;;;;;4.22;1.63;;;;;;;;;;5053973;28;20041;-70
2022/11/28 06:35:29;;;;;;;2.22;1.30;;;;;;;;;;5053508;28;20048;-69
2022/11/28 06:37:55;;;;;;;2.67;1.33;;;;;;;;;;5053442;28;20158;-69
2022/11/28 06:40:21;;;;;;;1.98;1.63;;;;;;;;;;5053652;28;20048;-69
2022/11/28 06:42:49;;;;;;;2.58;1.55;;;;;;;;;;5054057;28;20037;-69
2022/11/28 06:45:15;;;;;;;2.85;1.60;;;;;;;;;;5055578;28;20049;-69
2022/11/28 06:47:41;;;;;;;1.70;1.10;;;;;;;;;;5057719;28;20041;-69
2022/11/28 06:50:08;;;;;;;1.90;1.02;;;;;;;;;;5057859;28;20060;-69
2022/11/28 06:52:35;;;;;;;3.08;1.40;;;;;;;;;;5058028;28;20574;-69
2022/11/28 06:55:01;;;;;;;1.48;1.10;;;;;;;;;;5058014;28;20079;-69
2022/11/28 06:57:27;;;;;;;3.08;1.02;;;;;;;;;;5057798;28;20097;-69
2022/11/28 06:59:53;;;;;;;2.55;1.10;;;;;;;;;;5057757;28;20045;-69
2022/11/28 07:02:19;;;;;;;2.70;0.95;;;;;;;;;;5058213;28;20045;-69
2022/11/28 07:04:45;;;;;;;1.35;1.00;;;;;;;;;;5058080;28;20037;-70
2022/11/28 07:07:12;;;;;;;3.00;1.10;;;;;;;;;;5057996;28;20044;-69
2022/11/28 07:09:38;;;;;;;1.15;0.85;;;;;;;;;;5053425;28;20144;-69
2022/11/28 07:12:04;;;;;;;3.00;0.90;;;;;;;;;;5053695;28;20040;-70
2022/11/28 07:14:32;;;;;;;2.65;0.90;;;;;;;;;;5056592;28;20496;-70
2022/11/28 07:16:58;;;;;;;1.20;0.80;;;;;;;;;;5056713;28;20557;-70
2022/11/28 07:19:24;;;;;;;3.38;1.10;;;;;;;;;;5058708;28;20052;-70
2022/11/28 07:21:50;;;;;;;2.92;0.73;;;;;;;;;;5056728;28;20102;-70
2022/11/28 07:24:17;;;;;;;2.67;0.80;;;;;;;;;;5056650;28;20121;-70
2022/11/28 07:26:44;;;;;;;1.23;0.60;;;;;;;;;;5057520;28;20056;-70
2022/11/28 07:29:13;;;;;;;2.13;0.95;;;;;;;;;;5056704;28;20056;-69
2022/11/28 07:31:39;;;;;;;0.50;0.50;;;;;;;;;;5056770;28;20049;-70
2022/11/28 07:34:06;;;;;;;1.13;0.68;;;;;;;;;;5054928;28;20041;-70
2022/11/28 07:36:32;;;;;;;1.02;0.60;;;;;;;;;;5056823;28;20052;-70
2022/11/28 07:38:59;;;;;;;0.73;0.60;;;;;;;;;;5056987;28;20037;-70
2022/11/28 07:41:26;;;;;;;2.58;0.50;;;;;;;;;;5057240;28;20066;-70
2022/11/28 07:43:59;;;;;;;0.82;0.60;;;;;;;;;;5056939;28;20045;-70
2022/11/28 07:46:26;;;;;;;0.95;0.50;;;;;;;;;;5057064;28;20501;-70
2022/11/28 07:48:52;;;;;;;1.33;0.60;;;;;;;;;;5056674;28;20124;-70
2022/11/28 07:51:20;;;;;;;1.40;0.60;;;;;;;;;;5037475;28;20046;-70
2022/11/28 07:53:47;;;;;;;3.58;1.35;;;;;;;;;;5051480;28;20068;-70
2022/11/28 07:56:14;;;;;;;0.43;0.40;;;;;;;;;;5055901;28;20064;-70
2022/11/28 07:58:41;;;;;;;0.88;0.40;;;;;;;;;;5056138;28;20043;-70
2022/11/28 08:01:11;;;;;;;0.32;0.32;;;;;;;;;;5055231;28;20071;-70
2022/11/28 08:03:37;;;;;;;0.30;0.30;;;;;;;;;;5055377;28;20403;-70
2022/11/28 08:06:04;;;;;;;0.80;0.40;;;;;;;;;;5056001;28;20369;-71
2022/11/28 08:08:30;;;;;;;1.33;0.40;;;;;;;;;;5056543;28;20049;-70
2022/11/28 08:11:00;;;;;;;2.05;0.20;;;;;;;;;;5055823;28;20503;-70
2022/11/28 08:13:27;;;;;;;0.10;0.10;;;;;;;;;;5056674;28;20068;-71
2022/11/28 08:15:53;;;;;;;0.75;0.30;;;;;;;;;;5055586;28;20040;-70
2022/11/28 08:18:19;;;;;;;0.55;0.30;;;;;;;;;;5056949;28;20064;-70
2022/11/28 08:20:45;;;;;;;0.55;0.20;;;;;;;;;;5055979;28;20500;-70
2022/11/28 08:23:11;;;;;;;2.55;0.50;;;;;;;;;;5055901;28;20037;-70
2022/11/28 08:25:37;;;;;;;0.52;0.47;;;;;;;;;;5055017;28;20045;-70
2022/11/28 08:28:04;;;;;;;2.40;0.50;;;;;;;;;;5055647;28;20508;-70
2022/11/28 08:30:30;;;;;;;0.30;0.30;;;;;;;;;;5054218;28;20044;-71
2022/11/28 08:32:56;;;;;;;0.22;0.22;;;;;;;;;;5056101;28;20041;-71
2022/11/28 08:35:23;;;;;;;0.20;0.20;;;;;;;;;;5056045;28;20044;-70
2022/11/28 08:37:49;;;;;;;0.32;0.30;;;;;;;;;;5056232;28;20045;-70
2022/11/28 08:40:15;;;;;;;0.35;0.20;;;;;;;;;;5053585;28;20049;-70
2022/11/28 08:42:41;;;;;;;0.93;0.28;;;;;;;;;;5055696;28;20496;-70
2022/11/28 08:45:07;;;;;;;1.20;0.20;;;;;;;;;;5055767;28;20044;-70
2022/11/28 08:47:33;;;;;;;1.77;0.20;;;;;;;;;;5055521;28;20053;-69
2022/11/28 08:50:00;;;;;;;0.60;0.30;;;;;;;;;;5055363;28;20048;-69
2022/11/28 08:52:26;;;;;;;0.30;0.30;;;;;;;;;;5056331;28;20043;-68
2022/11/28 08:54:52;;;;;;;0.40;0.20;;;;;;;;;;5067539;28;20046;-68
2022/11/28 08:57:18;;;;;;;1.20;0.60;;;;;;;;;;5076249;28;20065;-68
2022/11/28 08:59:44;;;;;;;0.30;0.30;;;;;;;;;;5076043;28;20047;-69
2022/11/28 09:02:11;;;;;;;0.95;0.40;;;;;;;;;;5076153;28;20048;-69
2022/11/28 09:04:37;;;;;;;1.75;0.40;;;;;;;;;;5076028;28;20040;-70
2022/11/28 09:07:03;;;;;;;0.30;0.30;;;;;;;;;;5062813;28;20048;-69
2022/11/28 09:09:29;;;;;;;1.08;0.40;;;;;;;;;;5052719;28;20366;-69
2022/11/28 09:11:55;;;;;;;0.43;0.43;;;;;;;;;;5054486;28;20074;-69
2022/11/28 09:14:21;;;;;;;1.67;0.45;;;;;;;;;;5052621;28;20045;-69
2022/11/28 09:16:49;;;;;;;0.47;0.30;;;;;;;;;;5053082;28;20539;-69
2022/11/28 09:19:15;;;;;;;0.40;0.30;;;;;;;;;;5050085;28;20116;-69
2022/11/28 09:21:41;;;;;;;2.00;0.40;;;;;;;;;;5052642;28;20496;-69
2022/11/28 09:24:08;;;;;;;1.20;0.70;;;;;;;;;;5054255;28;20061;-69
2022/11/28 09:26:34;;;;;;;1.08;0.50;;;;;;;;;;5054943;28;20209;-70
2022/11/28 09:29:00;;;;;;;1.20;0.32;;;;;;;;;;5054796;28;20044;-69
2022/11/28 09:31:26;;;;;;;1.60;0.60;;;;;;;;;;5055205;28;20040;-70
2022/11/28 09:33:53;;;;;;;1.15;0.40;;;;;;;;;;5055256;28;20044;-70
2022/11/28 09:36:20;;;;;;;0.35;0.35;;;;;;;;;;5055244;28;20041;-70
2022/11/28 09:38:46;;;;;;;0.50;0.43;;;;;;;;;;5054310;28;20044;-70
2022/11/28 09:41:24;;;;;;;0.75;0.50;;;;;;;;;;5054817;28;20040;-70
2022/11/28 09:43:51;;;;;;;0.35;0.35;;;;;;;;;;5055068;28;20041;-70
2022/11/28 09:46:23;;;;;;;2.75;0.40;;;;;;;;;;5055234;28;20498;-69
2022/11/28 09:48:51;;;;;;;0.47;0.40;;;;;;;;;;5054354;28;20052;-69
2022/11/28 09:51:26;;;;;;;0.90;0.30;;;;;;;;;;5064166;28;20040;-69
2022/11/28 09:54:10;;;;;;;0.20;0.20;;;;;;;;;;5064422;28;20044;-69
2022/11/28 09:56:36;;;;;;;0.50;0.50;;;;;;;;;;5068060;28;20492;-69
2022/11/28 09:59:03;;;;;;;0.65;0.38;;;;;;;;;;5054561;28;20404;-70
2022/11/28 10:01:37;;;;;;;0.45;0.22;;;;;;;;;;5070143;28;20067;-70
2022/11/28 10:04:09;;;;;;;1.00;0.38;;;;;;;;;;5063519;28;20049;-70
2022/11/28 10:06:44;;;;;;;1.42;0.30;;;;;;;;;;5064188;28;20053;-70
2022/11/28 10:09:13;;;;;;;1.23;0.50;;;;;;;;;;5054218;28;20060;-69
2022/11/28 10:11:49;;;;;;;2.92;0.80;;;;;;;;;;5054229;28;20065;-70
2022/11/28 10:14:15;;;;;;;1.10;0.70;;;;;;;;;;5054307;28;20123;-70
2022/11/28 10:17:02;;;;;;;2.28;1.30;;;;;;;;;;5054144;28;20032;-69
2022/11/28 10:19:33;;;;;;;1.48;1.17;;;;;;;;;;5048482;28;20051;-69
2022/11/28 10:22:02;;;;;;;0.82;0.52;;;;;;;;;;5053394;28;20041;-69
2022/11/28 10:24:37;;;;;;;1.88;0.60;;;;;;;;;;5042347;28;20048;-69
2022/11/28 10:27:04;;;;;;;2.70;1.75;;;;;;;;;;5048219;28;20092;-68
2022/11/28 10:29:45;;;;;;;3.03;1.13;;;;;;;;;;5052049;28;20047;-69
2022/11/28 10:32:16;;;;;;;1.33;0.60;;;;;;;;;;5053501;28;20052;-68
2022/11/28 10:34:44;;;;;;;1.75;0.40;;;;;;;;;;5053447;28;20047;-69
2022/11/28 10:37:15;;;;;;;1.95;0.40;;;;;;;;;;5053753;28;20079;-69
2022/11/28 10:39:42;;;;;;;5.93;1.83;;;;;;;;;;5053649;28;20040;-68
2022/11/28 10:42:20;;;;;;;4.55;1.35;;;;;;;;;;5053893;28;20045;-69
2022/11/28 10:45:04;;;;;;;3.42;2.78;;;;;;;;;;5053654;28;20040;-69
2022/11/28 10:47:46;;;;;;;4.15;1.05;;;;;;;;;;5053386;28;20053;-70
2022/11/28 10:50:20;;;;;;;2.15;0.80;;;;;;;;;;5051314;28;20068;-70
2022/11/28 10:52:51;;;;;;;1.40;0.88;;;;;;;;;;5045341;28;20045;-69
2022/11/28 10:55:33;;;;;;;2.35;1.05;;;;;;;;;;5046233;28;20051;-69
2022/11/28 10:58:31;;;;;;;1.05;0.90;;;;;;;;;;5043227;28;20037;-69
2022/11/28 11:00:59;;;;;;;3.60;1.25;;;;;;;;;;5038679;28;20057;-68
2022/11/28 11:03:29;;;;;;;4.70;1.15;;;;;;;;;;5050773;28;20052;-69
2022/11/28 11:05:56;;;;;;;4.82;2.58;;;;;;;;;;5050908;28;20040;-69
2022/11/28 11:08:24;;;;;;;5.75;1.80;;;;;;;;;;5052781;28;20049;-69
2022/11/28 11:10:51;;;;;;;6.68;1.33;;;;;;;;;;5050147;28;20048;-69
2022/11/28 11:13:18;;;;;;;6.70;1.30;;;;;;;;;;5052653;28;20033;-69
2022/11/28 11:15:44;;;;;;;8.27;1.75;;;;;;;;;;5051931;28;20047;-69
2022/11/28 11:18:46;;;;;;;4.30;1.30;;;;;;;;;;5052139;28;20048;-69
2022/11/28 11:21:25;;;;;;;6.63;2.33;;;;;;;;;;5008364;28;20164;-69
2022/11/28 11:24:10;;;;;;;7.18;2.65;;;;;;;;;;5046871;28;20041;-69
2022/11/28 11:26:42;;;;;;;7.50;3.60;;;;;;;;;;5051472;28;20049;-69
2022/11/28 11:29:19;;;;;;;6.45;2.00;;;;;;;;;;5052005;28;20039;-69
2022/11/28 11:31:49;;;;;;;9.23;3.53;;;;;;;;;;5051084;28;20048;-68
2022/11/28 11:34:17;;;;;;;7.10;1.70;;;;;;;;;;5055777;28;20037;-69
2022/11/28 11:36:43;;;;;;;5.63;1.48;;;;;;;;;;5055244;28;20396;-69
2022/11/28 11:39:09;;;;;;;4.78;1.65;;;;;;;;;;5056859;28;20118;-69
2022/11/28 11:41:36;;;;;;;7.60;2.28;;;;;;;;;;5056255;28;20040;-69
2022/11/28 11:44:14;;;;;;;11.98;2.22;;;;;;;;;;5054598;28;20053;-68
2022/11/28 11:47:02;;;;;;;8.68;2.08;;;;;;;;;;5049993;28;20140;-68
2022/11/28 11:49:28;;;;;;;10.25;2.20;;;;;;;;;;5054722;28;20041;-68
2022/11/28 11:51:58;;;;;;;12.98;1.92;;;;;;;;;;5055331;28;20037;-68
2022/11/28 11:54:24;;;;;;;7.28;1.52;;;;;;;;;;5053539;28;20045;-69
2022/11/28 11:56:50;;;;;;;11.13;1.92;;;;;;;;;;5055125;28;20094;-68
2022/11/28 11:59:18;;;;;;;5.95;2.03;;;;;;;;;;5055415;28;20130;-69
2022/11/28 12:01:46;;;;;;;5.65;1.90;;;;;;;;;;5055172;28;20501;-69
2022/11/28 12:04:18;;;;;;;6.93;1.58;;;;;;;;;;5055507;28;20056;-69
2022/11/28 12:06:50;;;;;;;8.13;2.05;;;;;;;;;;5055239;28;20087;-69
2022/11/28 12:09:24;;;;;;;6.55;1.83;;;;;;;;;;5055407;28;20055;-69
2022/11/28 12:11:54;;;;;;;9.07;2.60;;;;;;;;;;5054384;28;20051;-69
2022/11/28 12:14:28;;;;;;;5.63;1.65;;;;;;;;;;5056015;28;20057;-69
2022/11/28 12:16:54;;;;;;;8.13;2.00;;;;;;;;;;5054076;28;20037;-69
2022/11/28 12:19:38;;;;;;;5.97;1.85;;;;;;;;;;5055744;28;20051;-69
2022/11/28 12:22:16;;;;;;;6.78;1.95;;;;;;;;;;5053899;28;20044;-69
2022/11/28 12:24:45;;;;;;;7.60;1.83;;;;;;;;;;5055875;28;20037;-69
2022/11/28 12:27:24;;;;;;;4.65;1.73;;;;;;;;;;5054460;28;20081;-69
2022/11/28 12:30:08;;;;;;;3.35;1.17;;;;;;;;;;5055901;28;20056;-69
2022/11/28 12:32:52;;;;;;;4.93;1.30;;;;;;;;;;5055408;28;20048;-69
2022/11/28 12:35:21;;;;;;;8.52;1.65;;;;;;;;;;5054260;28;20071;-69
2022/11/28 12:37:47;;;;;;;9.27;1.45;;;;;;;;;;5056763;28;20072;-70
2022/11/28 12:40:28;;;;;;;7.38;1.20;;;;;;;;;;5056278;28;20041;-69
2022/11/28 12:43:03;;;;;;;8.32;1.85;;;;;;;;;;5043408;28;20097;-70
2022/11/28 12:45:48;;;;;;;7.78;1.52;;;;;;;;;;5054493;28;20083;-69
2022/11/28 12:48:28;;;;;;;7.55;1.70;;;;;;;;;;5054892;28;20048;-70
2022/11/28 12:51:04;;;;;;;8.38;3.13;;;;;;;;;;5055467;28;20083;-69
2022/11/28 12:53:50;;;;;;;10.02;1.73;;;;;;;;;;5055847;28;20048;-72
2022/11/28 12:56:27;;;;;;;6.82;1.73;;;;;;;;;;5054999;28;21093;-71
2022/11/28 12:59:13;;;;;;;7.43;1.60;;;;;;;;;;5054555;28;20037;-71
2022/11/28 13:01:54;;;;;;;7.38;1.52;;;;;;;;;;5056095;28;20120;-71
2022/11/28 13:04:34;;;;;;;6.85;1.60;;;;;;;;;;5055664;28;20041;-71
2022/11/28 13:07:24;;;;;;;9.68;1.55;;;;;;;;;;5056311;28;20128;-71
2022/11/28 13:10:09;;;;;;;6.57;1.48;;;;;;;;;;5055489;28;20044;-71
2022/11/28 13:12:38;;;;;;;6.57;1.98;;;;;;;;;;5056202;28;20553;-71
2022/11/28 13:15:12;;;;;;;7.72;2.65;;;;;;;;;;5056493;28;20114;-71
2022/11/28 13:17:45;;;;;;;6.50;3.00;;;;;;;;;;5055912;28;20060;-71
2022/11/28 13:20:34;;;;;;;5.47;1.58;;;;;;;;;;5056216;28;20194;-71
2022/11/28 13:23:09;;;;;;;9.32;2.05;;;;;;;;;;5052657;28;20127;-71
2022/11/28 13:25:39;;;;;;;7.03;1.98;;;;;;;;;;5055427;28;20057;-71
2022/11/28 13:28:21;;;;;;;6.38;1.85;;;;;;;;;;5055305;28;20055;-71
2022/11/28 13:30:50;;;;;;;11.38;2.30;;;;;;;;;;5055715;28;20496;-70
2022/11/28 13:33:19;;;;;;;11.15;2.80;;;;;;;;;;5054967;28;20077;-71
2022/11/28 13:35:46;;;;;;;7.32;1.80;;;;;;;;;;5054976;28;20124;-71
2022/11/28 13:38:19;;;;;;;8.02;1.95;;;;;;;;;;5055244;28;20170;-71
2022/11/28 13:41:06;;;;;;;8.48;2.58;;;;;;;;;;5055213;28;20041;-71
2022/11/28 13:43:54;;;;;;;6.95;2.70;;;;;;;;;;5050826;28;20178;-71
2022/11/28 13:46:20;;;;;;;6.78;2.00;;;;;;;;;;5054724;28;20045;-71
2022/11/28 13:48:47;;;;;;;7.07;2.15;;;;;;;;;;5054871;28;20110;-71
2022/11/28 13:51:18;;;;;;;9.45;2.28;;;;;;;;;;5054912;28;20072;-71
2022/11/28 13:53:45;;;;;;;6.70;2.55;;;;;;;;;;5054741;28;20037;-71
2022/11/28 13:56:22;;;;;;;5.20;1.75;;;;;;;;;;5054344;28;20132;-71
2022/11/28 13:58:56;;;;;;;9.73;3.13;;;;;;;;;;5054288;28;20107;-71
2022/11/28 14:01:24;;;;;;;8.25;2.85;;;;;;;;;;5053663;28;20044;-71
2022/11/28 14:03:50;;;;;;;4.50;1.92;;;;;;;;;;5053349;28;20040;-71
2022/11/28 14:06:19;;;;;;;9.63;3.88;;;;;;;;;;5054681;28;20045;-71
2022/11/28 14:08:46;;;;;;;4.40;1.83;;;;;;;;;;5054641;28;20036;-71
2022/11/28 14:11:12;;;;;;;6.70;2.15;;;;;;;;;;5053590;28;20037;-71
2022/11/28 14:13:43;;;;;;;7.70;1.50;;;;;;;;;;5053973;28;20072;-71
2022/11/28 14:16:25;;;;;;;3.45;1.25;;;;;;;;;;5054534;28;20040;-71
2022/11/28 14:19:23;;;;;;;5.63;1.63;;;;;;;;;;5053964;28;20042;-71
2022/11/28 14:22:00;;;;;;;4.43;1.60;;;;;;;;;;5042260;28;20103;-71
2022/11/28 14:24:43;;;;;;;5.10;1.70;;;;;;;;;;5054401;28;20045;-71
2022/11/28 14:27:15;;;;;;;5.35;1.60;;;;;;;;;;5055555;28;20061;-71
2022/11/28 14:29:41;;;;;;;5.40;1.60;;;;;;;;;;5054677;28;20090;-71
2022/11/28 14:32:20;;;;;;;4.20;1.65;;;;;;;;;;5055171;28;20045;-69
2022/11/28 14:34:49;;;;;;;8.70;1.55;;;;;;;;;;5054467;28;20102;-69
2022/11/28 14:37:25;;;;;;;5.88;1.77;;;;;;;;;;5052067;28;20375;-68
2022/11/28 14:39:52;;;;;;;9.00;1.98;;;;;;;;;;5049997;28;20040;-68
2022/11/28 14:42:18;;;;;;;7.72;2.00;;;;;;;;;;5043209;28;20041;-69
2022/11/28 14:44:44;;;;;;;6.10;2.08;;;;;;;;;;5051986;28;20059;-69
2022/11/28 14:47:26;;;;;;;8.45;1.40;;;;;;;;;;5051555;28;20055;-69
2022/11/28 14:50:04;;;;;;;3.35;1.45;;;;;;;;;;5053661;28;20048;-69
2022/11/28 14:52:31;;;;;;;4.35;1.17;;;;;;;;;;5053477;28;20119;-69